sensor_id;sensor_type;location;lat;lon;timestamp;pressure;altitude;pressure_sealevel;temperature;humidity
52983;BME280;48698;45.736;13.926;2024-03-22T00:03:34;97984.69;;;7.88;100.00
52983;BME280;48698;45.736;13.926;2024-03-22T00:08:36;98133.44;;;8.21;100.00
52983;BME280;48698;45.736;13.926;2024-03-22T00:13:38;98114.34;;;7.31;100.00
52983;BME280;48698;45.736;13.926;2024-03-22T00:18:40;98145.00;;;7.07;100.00
52983;BME280;48698;45.736;13.926;2024-03-22T00:23:43;98130.19;;;7.02;100.00
52983;BME280;48698;45.736;13.926;2024-03-22T00:28:45;98000.69;;;6.48;100.00
52983;BME280;48698;45.736;13.926;2024-03-22T00:33:47;98181.63;;;7.49;100.00
52983;BME280;48698;45.736;13.926;2024-03-22T00:38:49;98043.47;;;6.59;100.00
52983;BME280;48698;45.736;13.926;2024-03-22T00:43:51;97943.34;;;5.94;100.00
52983;BME280;48698;45.736;13.926;2024-03-22T00:48:53;97995.91;;;6.31;100.00
52983;BME280;48698;45.736;13.926;2024-03-22T00:53:54;97886.00;;;5.05;100.00
52983;BME280;48698;45.736;13.926;2024-03-22T00:58:57;98032.47;;;5.79;100.00
52983;BME280;48698;45.736;13.926;2024-03-22T01:03:59;98101.75;;;6.50;100.00
52983;BME280;48698;45.736;13.926;2024-03-22T01:09:01;98106.59;;;6.34;100.00
52983;BME280;48698;45.736;13.926;2024-03-22T01:14:04;97928.28;;;4.98;100.00
52983;BME280;48698;45.736;13.926;2024-03-22T01:19:06;98148.97;;;6.60;100.00
52983;BME280;48698;45.736;13.926;2024-03-22T01:24:08;98103.94;;;6.36;100.00
52983;BME280;48698;45.736;13.926;2024-03-22T01:29:10;97927.72;;;4.87;100.00
52983;BME280;48698;45.736;13.926;2024-03-22T01:34:12;97971.31;;;5.32;100.00
52983;BME280;48698;45.736;13.926;2024-03-22T01:39:31;98153.66;;;6.17;100.00
52983;BME280;48698;45.736;13.926;2024-03-22T01:44:51;98094.31;;;5.64;100.00
52983;BME280;48698;45.736;13.926;2024-03-22T01:49:54;98133.59;;;6.10;100.00
52983;BME280;48698;45.736;13.926;2024-03-22T01:54:56;98056.94;;;5.50;100.00
52983;BME280;48698;45.736;13.926;2024-03-22T02:00:05;98088.16;;;5.28;100.00
52983;BME280;48698;45.736;13.926;2024-03-22T02:05:14;98002.13;;;4.53;100.00
52983;BME280;48698;45.736;13.926;2024-03-22T02:10:17;98142.34;;;5.77;100.00
52983;BME280;48698;45.736;13.926;2024-03-22T02:15:21;98163.69;;;5.64;100.00
52983;BME280;48698;45.736;13.926;2024-03-22T02:20:23;97850.94;;;3.54;100.00
52983;BME280;48698;45.736;13.926;2024-03-22T02:25:24;97921.28;;;4.23;100.00
52983;BME280;48698;45.736;13.926;2024-03-22T02:30:26;97845.78;;;3.04;100.00
52983;BME280;48698;45.736;13.926;2024-03-22T02:35:28;98120.97;;;4.74;100.00
52983;BME280;48698;45.736;13.926;2024-03-22T02:40:30;97801.41;;;2.90;100.00
52983;BME280;48698;45.736;13.926;2024-03-22T02:45:32;98094.97;;;5.00;100.00
52983;BME280;48698;45.736;13.926;2024-03-22T02:50:34;98132.44;;;5.11;100.00
52983;BME280;48698;45.736;13.926;2024-03-22T02:55:37;97871.06;;;3.52;100.00
52983;BME280;48698;45.736;13.926;2024-03-22T03:00:40;98157.50;;;6.04;100.00
52983;BME280;48698;45.736;13.926;2024-03-22T03:05:42;98003.56;;;6.09;100.00
52983;BME280;48698;45.736;13.926;2024-03-22T03:10:44;97870.13;;;6.04;100.00
52983;BME280;48698;45.736;13.926;2024-03-22T03:15:47;97861.25;;;6.36;100.00
52983;BME280;48698;45.736;13.926;2024-03-22T03:20:49;98103.25;;;8.02;100.00
52983;BME280;48698;45.736;13.926;2024-03-22T03:25:50;97990.81;;;7.11;100.00
52983;BME280;48698;45.736;13.926;2024-03-22T03:30:52;98053.75;;;8.05;100.00
52983;BME280;48698;45.736;13.926;2024-03-22T03:35:54;97942.81;;;6.99;100.00
52983;BME280;48698;45.736;13.926;2024-03-22T03:40:56;98041.16;;;7.33;100.00
52983;BME280;48698;45.736;13.926;2024-03-22T03:45:58;97839.47;;;5.38;100.00
52983;BME280;48698;45.736;13.926;2024-03-22T03:50:59;98022.78;;;6.44;100.00
52983;BME280;48698;45.736;13.926;2024-03-22T03:56:04;98058.13;;;6.69;100.00
52983;BME280;48698;45.736;13.926;2024-03-22T04:01:07;98110.88;;;7.57;100.00
52983;BME280;48698;45.736;13.926;2024-03-22T04:06:09;98001.31;;;7.13;100.00
52983;BME280;48698;45.736;13.926;2024-03-22T04:11:11;97861.88;;;5.84;100.00
52983;BME280;48698;45.736;13.926;2024-03-22T04:16:14;98052.84;;;6.69;100.00
52983;BME280;48698;45.736;13.926;2024-03-22T04:21:16;98089.53;;;7.07;100.00
52983;BME280;48698;45.736;13.926;2024-03-22T04:26:18;98059.25;;;6.60;100.00
52983;BME280;48698;45.736;13.926;2024-03-22T04:31:23;97906.50;;;5.91;100.00
52983;BME280;48698;45.736;13.926;2024-03-22T04:36:25;97826.13;;;5.44;100.00
52983;BME280;48698;45.736;13.926;2024-03-22T04:41:26;97806.53;;;5.54;100.00
52983;BME280;48698;45.736;13.926;2024-03-22T04:46:28;97940.94;;;6.74;100.00
52983;BME280;48698;45.736;13.926;2024-03-22T04:51:30;98023.28;;;6.56;100.00
52983;BME280;48698;45.736;13.926;2024-03-22T04:56:32;98038.03;;;6.93;100.00
52983;BME280;48698;45.736;13.926;2024-03-22T05:01:33;98089.06;;;6.93;100.00
52983;BME280;48698;45.736;13.926;2024-03-22T05:06:35;98094.00;;;6.76;100.00
52983;BME280;48698;45.736;13.926;2024-03-22T05:11:37;97857.97;;;5.37;100.00
52983;BME280;48698;45.736;13.926;2024-03-22T05:16:39;97846.84;;;5.89;100.00
52983;BME280;48698;45.736;13.926;2024-03-22T05:21:41;97950.75;;;6.97;100.00
52983;BME280;48698;45.736;13.926;2024-03-22T05:26:42;98070.38;;;7.82;100.00
52983;BME280;48698;45.736;13.926;2024-03-22T05:31:49;98097.88;;;7.77;100.00
52983;BME280;48698;45.736;13.926;2024-03-22T05:36:52;98065.59;;;7.67;100.00
52983;BME280;48698;45.736;13.926;2024-03-22T05:41:54;97806.06;;;6.30;100.00
52983;BME280;48698;45.736;13.926;2024-03-22T05:46:56;98031.56;;;8.34;100.00
52983;BME280;48698;45.736;13.926;2024-03-22T05:51:58;98105.69;;;9.05;100.00
52983;BME280;48698;45.736;13.926;2024-03-22T05:57:00;98074.44;;;9.37;100.00
52983;BME280;48698;45.736;13.926;2024-03-22T06:02:02;98040.59;;;9.43;100.00
52983;BME280;48698;45.736;13.926;2024-03-22T06:07:07;98097.53;;;9.56;100.00
52983;BME280;48698;45.736;13.926;2024-03-22T06:12:09;98084.66;;;10.11;100.00
52983;BME280;48698;45.736;13.926;2024-03-22T06:17:11;98060.78;;;10.51;100.00
52983;BME280;48698;45.736;13.926;2024-03-22T06:22:13;98019.56;;;10.43;100.00
52983;BME280;48698;45.736;13.926;2024-03-22T06:27:15;97863.41;;;9.34;100.00
52983;BME280;48698;45.736;13.926;2024-03-22T06:32:18;98012.06;;;10.71;100.00
52983;BME280;48698;45.736;13.926;2024-03-22T06:37:22;98008.66;;;11.06;100.00
52983;BME280;48698;45.736;13.926;2024-03-22T06:42:24;97974.72;;;11.11;100.00
52983;BME280;48698;45.736;13.926;2024-03-22T06:47:28;98015.34;;;11.51;100.00
52983;BME280;48698;45.736;13.926;2024-03-22T06:52:29;97874.59;;;10.76;100.00
52983;BME280;48698;45.736;13.926;2024-03-22T06:57:32;97923.16;;;11.15;100.00
52983;BME280;48698;45.736;13.926;2024-03-22T07:02:35;98050.38;;;12.30;100.00
52983;BME280;48698;45.736;13.926;2024-03-22T07:07:38;97857.19;;;11.23;100.00
52983;BME280;48698;45.736;13.926;2024-03-22T07:12:40;97842.34;;;11.36;100.00
52983;BME280;48698;45.736;13.926;2024-03-22T07:17:41;97905.78;;;11.96;100.00
52983;BME280;48698;45.736;13.926;2024-03-22T07:22:44;97940.41;;;12.28;100.00
52983;BME280;48698;45.736;13.926;2024-03-22T07:27:46;98046.16;;;13.09;100.00
52983;BME280;48698;45.736;13.926;2024-03-22T07:32:49;98049.09;;;13.36;100.00
52983;BME280;48698;45.736;13.926;2024-03-22T07:37:51;97987.09;;;13.00;100.00
52983;BME280;48698;45.736;13.926;2024-03-22T07:42:53;97969.13;;;13.03;100.00
52983;BME280;48698;45.736;13.926;2024-03-22T07:47:55;98021.41;;;13.54;100.00
52983;BME280;48698;45.736;13.926;2024-03-22T07:52:56;98043.50;;;13.87;100.00
52983;BME280;48698;45.736;13.926;2024-03-22T07:57:59;97956.75;;;13.49;100.00
52983;BME280;48698;45.736;13.926;2024-03-22T08:03:01;98040.03;;;14.15;100.00
52983;BME280;48698;45.736;13.926;2024-03-22T08:08:03;98013.06;;;14.20;100.00
52983;BME280;48698;45.736;13.926;2024-03-22T08:13:05;97824.41;;;13.17;100.00
52983;BME280;48698;45.736;13.926;2024-03-22T08:18:07;97935.28;;;14.40;100.00
52983;BME280;48698;45.736;13.926;2024-03-22T08:23:10;97868.59;;;13.80;100.00
52983;BME280;48698;45.736;13.926;2024-03-22T08:28:12;98050.63;;;15.19;100.00
52983;BME280;48698;45.736;13.926;2024-03-22T08:33:15;97995.41;;;15.18;100.00
52983;BME280;48698;45.736;13.926;2024-03-22T08:38:17;98027.00;;;15.80;100.00
52983;BME280;48698;45.736;13.926;2024-03-22T08:43:20;97969.44;;;15.46;100.00
52983;BME280;48698;45.736;13.926;2024-03-22T08:48:24;98009.88;;;15.83;100.00
52983;BME280;48698;45.736;13.926;2024-03-22T08:53:26;97919.84;;;15.68;100.00
52983;BME280;48698;45.736;13.926;2024-03-22T08:58:27;98000.09;;;16.09;100.00
52983;BME280;48698;45.736;13.926;2024-03-22T09:03:29;98014.47;;;16.72;100.00
52983;BME280;48698;45.736;13.926;2024-03-22T09:08:32;97885.19;;;16.67;100.00
52983;BME280;48698;45.736;13.926;2024-03-22T09:13:35;97915.59;;;17.04;100.00
52983;BME280;48698;45.736;13.926;2024-03-22T09:18:37;98017.66;;;17.64;100.00
52983;BME280;48698;45.736;13.926;2024-03-22T09:23:39;97896.50;;;17.32;100.00
52983;BME280;48698;45.736;13.926;2024-03-22T09:28:41;97916.44;;;17.41;100.00
52983;BME280;48698;45.736;13.926;2024-03-22T09:33:44;97985.56;;;17.86;98.17
52983;BME280;48698;45.736;13.926;2024-03-22T09:38:45;97965.94;;;18.32;91.57
52983;BME280;48698;45.736;13.926;2024-03-22T09:43:48;98004.63;;;18.53;88.25
52983;BME280;48698;45.736;13.926;2024-03-22T09:48:52;98008.97;;;19.67;84.69
52983;BME280;48698;45.736;13.926;2024-03-22T09:53:54;97757.06;;;17.88;91.29
52983;BME280;48698;45.736;13.926;2024-03-22T09:58:57;97870.25;;;18.40;82.59
52983;BME280;48698;45.736;13.926;2024-03-22T10:03:59;97762.66;;;18.74;75.33
52983;BME280;48698;45.736;13.926;2024-03-22T10:09:01;97972.63;;;20.25;71.93
52983;BME280;48698;45.736;13.926;2024-03-22T10:14:03;97923.53;;;21.02;69.47
52983;BME280;48698;45.736;13.926;2024-03-22T10:19:09;97967.91;;;21.40;68.57
52983;BME280;48698;45.736;13.926;2024-03-22T10:24:11;97915.34;;;20.83;68.93
52983;BME280;48698;45.736;13.926;2024-03-22T10:29:13;97941.34;;;20.33;69.04
52983;BME280;48698;45.736;13.926;2024-03-22T10:34:16;97745.72;;;20.39;62.89
52983;BME280;48698;45.736;13.926;2024-03-22T10:39:18;97906.06;;;21.46;67.01
52983;BME280;48698;45.736;13.926;2024-03-22T10:44:21;97842.31;;;19.83;66.60
52983;BME280;48698;45.736;13.926;2024-03-22T10:54:08;97949.22;;;20.97;58.58
52983;BME280;48698;45.736;13.926;2024-03-22T11:04:08;97922.84;;;21.40;57.31
52983;BME280;48698;45.736;13.926;2024-03-22T11:14:10;97935.25;;;21.12;58.95
52983;BME280;48698;45.736;13.926;2024-03-22T11:19:12;97889.53;;;20.19;64.38
52983;BME280;48698;45.736;13.926;2024-03-22T11:24:15;97902.22;;;19.32;63.12
52983;BME280;48698;45.736;13.926;2024-03-22T11:29:16;97893.69;;;20.43;61.01
52983;BME280;48698;45.736;13.926;2024-03-22T11:34:18;97876.31;;;19.95;60.62
52983;BME280;48698;45.736;13.926;2024-03-22T11:39:21;97827.44;;;19.47;63.55
52983;BME280;48698;45.736;13.926;2024-03-22T11:44:23;97863.91;;;20.45;63.59
52983;BME280;48698;45.736;13.926;2024-03-22T11:49:27;97846.69;;;20.76;63.59
52983;BME280;48698;45.736;13.926;2024-03-22T11:54:29;97798.31;;;20.24;62.77
52983;BME280;48698;45.736;13.926;2024-03-22T11:59:30;97825.78;;;20.38;60.71
52983;BME280;48698;45.736;13.926;2024-03-22T12:04:32;97821.72;;;20.02;66.11
52983;BME280;48698;45.736;13.926;2024-03-22T12:09:34;97828.56;;;19.86;61.63
52983;BME280;48698;45.736;13.926;2024-03-22T12:14:36;97659.28;;;19.70;68.06
52983;BME280;48698;45.736;13.926;2024-03-22T12:19:38;97730.00;;;20.44;63.33
52983;BME280;48698;45.736;13.926;2024-03-22T12:24:39;97809.41;;;21.00;59.79
52983;BME280;48698;45.736;13.926;2024-03-22T12:29:41;97814.53;;;21.03;58.46
52983;BME280;48698;45.736;13.926;2024-03-22T12:34:43;97800.38;;;20.31;58.75
52983;BME280;48698;45.736;13.926;2024-03-22T12:39:45;97779.00;;;20.49;57.97
52983;BME280;48698;45.736;13.926;2024-03-22T12:44:47;97786.94;;;20.90;54.72
52983;BME280;48698;45.736;13.926;2024-03-22T12:49:48;97748.06;;;20.53;56.37
52983;BME280;48698;45.736;13.926;2024-03-22T12:54:50;97783.69;;;20.96;58.74
52983;BME280;48698;45.736;13.926;2024-03-22T12:59:52;97735.31;;;19.53;60.77
52983;BME280;48698;45.736;13.926;2024-03-22T13:04:54;97757.31;;;19.99;59.29
52983;BME280;48698;45.736;13.926;2024-03-22T13:09:56;97751.28;;;20.37;65.68
52983;BME280;48698;45.736;13.926;2024-03-22T13:15:02;97755.16;;;19.93;65.93
52983;BME280;48698;45.736;13.926;2024-03-22T13:20:04;97720.34;;;19.60;69.27
52983;BME280;48698;45.736;13.926;2024-03-22T13:25:11;97747.25;;;20.01;69.73
52983;BME280;48698;45.736;13.926;2024-03-22T13:30:14;97746.47;;;19.69;66.04
52983;BME280;48698;45.736;13.926;2024-03-22T13:35:17;97746.78;;;19.45;67.27
52983;BME280;48698;45.736;13.926;2024-03-22T13:40:18;97691.28;;;19.01;69.72
52983;BME280;48698;45.736;13.926;2024-03-22T13:45:20;97696.28;;;19.27;73.34
52983;BME280;48698;45.736;13.926;2024-03-22T13:50:22;97729.25;;;19.40;76.35
52983;BME280;48698;45.736;13.926;2024-03-22T13:55:25;97678.28;;;19.27;80.28
52983;BME280;48698;45.736;13.926;2024-03-22T14:00:27;97677.41;;;19.06;77.40
52983;BME280;48698;45.736;13.926;2024-03-22T14:05:29;97722.88;;;19.52;80.08
52983;BME280;48698;45.736;13.926;2024-03-22T14:10:31;97712.56;;;18.93;76.04
52983;BME280;48698;45.736;13.926;2024-03-22T14:15:33;97714.84;;;19.30;82.21
52983;BME280;48698;45.736;13.926;2024-03-22T14:20:36;97716.31;;;19.34;80.79
52983;BME280;48698;45.736;13.926;2024-03-22T14:25:38;97714.91;;;19.50;83.51
52983;BME280;48698;45.736;13.926;2024-03-22T14:30:40;97706.06;;;18.96;83.46
52983;BME280;48698;45.736;13.926;2024-03-22T14:35:42;97646.25;;;18.29;92.14
52983;BME280;48698;45.736;13.926;2024-03-22T14:40:44;97695.81;;;18.69;92.14
52983;BME280;48698;45.736;13.926;2024-03-22T14:45:47;97698.16;;;18.51;92.93
52983;BME280;48698;45.736;13.926;2024-03-22T14:50:49;97696.28;;;18.63;92.82
52983;BME280;48698;45.736;13.926;2024-03-22T14:56:02;97675.91;;;18.38;86.99
52983;BME280;48698;45.736;13.926;2024-03-22T15:01:10;97660.66;;;18.39;92.39
52983;BME280;48698;45.736;13.926;2024-03-22T15:06:12;97638.38;;;18.48;88.74
52983;BME280;48698;45.736;13.926;2024-03-22T15:11:14;97686.22;;;18.22;92.71
52983;BME280;48698;45.736;13.926;2024-03-22T15:16:16;97690.47;;;18.25;94.43
52983;BME280;48698;45.736;13.926;2024-03-22T15:21:17;97682.56;;;18.12;100.00
52983;BME280;48698;45.736;13.926;2024-03-22T15:26:21;97644.81;;;17.80;100.00
52983;BME280;48698;45.736;13.926;2024-03-22T15:31:24;97660.00;;;17.92;100.00
52983;BME280;48698;45.736;13.926;2024-03-22T15:36:25;97684.75;;;18.18;100.00
52983;BME280;48698;45.736;13.926;2024-03-22T15:41:28;97669.47;;;18.19;100.00
52983;BME280;48698;45.736;13.926;2024-03-22T15:46:30;97646.75;;;18.23;100.00
52983;BME280;48698;45.736;13.926;2024-03-22T15:51:32;97656.56;;;17.90;98.16
52983;BME280;48698;45.736;13.926;2024-03-22T15:56:34;97661.66;;;17.93;100.00
52983;BME280;48698;45.736;13.926;2024-03-22T16:01:37;97656.19;;;17.62;100.00
52983;BME280;48698;45.736;13.926;2024-03-22T16:06:39;97663.59;;;17.47;100.00
52983;BME280;48698;45.736;13.926;2024-03-22T16:11:40;97606.19;;;17.15;100.00
52983;BME280;48698;45.736;13.926;2024-03-22T16:16:44;97655.25;;;17.28;100.00
52983;BME280;48698;45.736;13.926;2024-03-22T16:21:45;97651.69;;;17.05;100.00
52983;BME280;48698;45.736;13.926;2024-03-22T16:26:47;97610.78;;;16.32;100.00
52983;BME280;48698;45.736;13.926;2024-03-22T16:31:50;97658.19;;;16.79;100.00
52983;BME280;48698;45.736;13.926;2024-03-22T16:36:53;97654.44;;;16.92;100.00
52983;BME280;48698;45.736;13.926;2024-03-22T16:41:55;97634.63;;;16.24;100.00
52983;BME280;48698;45.736;13.926;2024-03-22T16:46:57;97658.78;;;16.35;100.00
52983;BME280;48698;45.736;13.926;2024-03-22T16:51:59;97578.41;;;15.87;100.00
52983;BME280;48698;45.736;13.926;2024-03-22T16:57:03;97667.31;;;15.80;100.00
52983;BME280;48698;45.736;13.926;2024-03-22T17:02:05;97654.28;;;15.63;100.00
52983;BME280;48698;45.736;13.926;2024-03-22T17:07:09;97606.31;;;15.47;100.00
52983;BME280;48698;45.736;13.926;2024-03-22T17:19:10;97641.06;;;14.84;100.00
52983;BME280;48698;45.736;13.926;2024-03-22T17:24:12;97660.66;;;14.84;100.00
52983;BME280;48698;45.736;13.926;2024-03-22T17:29:15;97665.94;;;13.77;100.00
52983;BME280;48698;45.736;13.926;2024-03-22T17:34:17;97629.53;;;13.06;100.00
52983;BME280;48698;45.736;13.926;2024-03-22T17:39:19;97649.28;;;12.87;100.00
52983;BME280;48698;45.736;13.926;2024-03-22T17:44:21;97637.91;;;11.79;100.00
52983;BME280;48698;45.736;13.926;2024-03-22T17:49:22;97682.91;;;11.99;100.00
52983;BME280;48698;45.736;13.926;2024-03-22T17:54:25;97683.22;;;11.77;100.00
52983;BME280;48698;45.736;13.926;2024-03-22T17:59:27;97682.75;;;11.69;100.00
52983;BME280;48698;45.736;13.926;2024-03-22T18:04:29;97688.81;;;10.73;100.00
52983;BME280;48698;45.736;13.926;2024-03-22T18:09:31;97690.94;;;10.83;100.00
52983;BME280;48698;45.736;13.926;2024-03-22T18:21:27;97634.03;;;10.19;100.00
52983;BME280;48698;45.736;13.926;2024-03-22T18:26:29;97688.84;;;9.82;100.00
52983;BME280;48698;45.736;13.926;2024-03-22T18:31:30;97635.31;;;10.10;100.00
52983;BME280;48698;45.736;13.926;2024-03-22T18:36:32;97669.25;;;9.29;100.00
52983;BME280;48698;45.736;13.926;2024-03-22T18:41:34;97688.66;;;9.11;100.00
52983;BME280;48698;45.736;13.926;2024-03-22T18:46:40;97704.72;;;10.56;100.00
52983;BME280;48698;45.736;13.926;2024-03-22T18:51:44;97699.50;;;10.37;100.00
52983;BME280;48698;45.736;13.926;2024-03-22T18:56:46;97697.91;;;9.21;100.00
52983;BME280;48698;45.736;13.926;2024-03-22T19:01:48;97708.53;;;9.01;100.00
52983;BME280;48698;45.736;13.926;2024-03-22T19:06:51;97702.91;;;8.88;100.00
52983;BME280;48698;45.736;13.926;2024-03-22T19:11:53;97692.63;;;9.40;100.00
52983;BME280;48698;45.736;13.926;2024-03-22T19:23:43;97709.00;;;9.29;100.00
52983;BME280;48698;45.736;13.926;2024-03-22T19:28:45;97704.03;;;7.97;100.00
52983;BME280;48698;45.736;13.926;2024-03-22T19:33:46;97691.94;;;8.35;100.00
52983;BME280;48698;45.736;13.926;2024-03-22T19:38:49;97707.97;;;8.72;100.00
52983;BME280;48698;45.736;13.926;2024-03-22T19:43:55;97608.06;;;7.52;100.00
52983;BME280;48698;45.736;13.926;2024-03-22T19:48:57;97711.78;;;8.87;100.00
52983;BME280;48698;45.736;13.926;2024-03-22T19:53:59;97717.50;;;8.56;100.00
52983;BME280;48698;45.736;13.926;2024-03-22T19:59:01;97691.69;;;8.41;100.00
52983;BME280;48698;45.736;13.926;2024-03-22T20:04:04;97736.53;;;8.44;100.00
52983;BME280;48698;45.736;13.926;2024-03-22T20:09:06;97660.41;;;8.29;100.00
52983;BME280;48698;45.736;13.926;2024-03-22T20:14:09;97598.47;;;8.13;100.00
52983;BME280;48698;45.736;13.926;2024-03-22T20:19:13;97664.06;;;8.05;100.00
52983;BME280;48698;45.736;13.926;2024-03-22T20:24:15;97562.84;;;7.36;100.00
52983;BME280;48698;45.736;13.926;2024-03-22T20:29:17;97598.81;;;6.95;100.00
52983;BME280;48698;45.736;13.926;2024-03-22T20:34:19;97650.91;;;7.82;100.00
